sensor_id;sensor_type;location;lat;lon;timestamp;P1;durP1;ratioP1;P2;durP2;ratioP2
15228;SDS011;7717;47.792;12.076;2023-08-12T00:01:55;4.93;;;4.43;;
15228;SDS011;7717;47.792;12.076;2023-08-12T00:04:21;7.43;;;4.70;;
15228;SDS011;7717;47.792;12.076;2023-08-12T00:06:46;6.03;;;4.40;;
15228;SDS011;7717;47.792;12.076;2023-08-12T00:09:11;5.67;;;5.20;;
15228;SDS011;7717;47.792;12.076;2023-08-12T00:11:37;5.40;;;4.83;;
15228;SDS011;7717;47.792;12.076;2023-08-12T00:14:02;6.20;;;4.90;;
15228;SDS011;7717;47.792;12.076;2023-08-12T00:16:27;4.93;;;4.43;;
15228;SDS011;7717;47.792;12.076;2023-08-12T00:18:53;5.97;;;5.37;;
15228;SDS011;7717;47.792;12.076;2023-08-12T00:21:19;5.73;;;5.23;;
15228;SDS011;7717;47.792;12.076;2023-08-12T00:23:45;5.40;;;4.90;;
15228;SDS011;7717;47.792;12.076;2023-08-12T00:26:10;5.60;;;4.87;;
15228;SDS011;7717;47.792;12.076;2023-08-12T00:28:35;5.80;;;5.20;;
15228;SDS011;7717;47.792;12.076;2023-08-12T00:31:01;5.80;;;5.03;;
15228;SDS011;7717;47.792;12.076;2023-08-12T00:33:26;5.07;;;4.57;;
15228;SDS011;7717;47.792;12.076;2023-08-12T00:35:51;5.10;;;4.60;;
15228;SDS011;7717;47.792;12.076;2023-08-12T00:38:17;6.93;;;4.97;;
15228;SDS011;7717;47.792;12.076;2023-08-12T00:40:42;5.57;;;4.77;;
15228;SDS011;7717;47.792;12.076;2023-08-12T00:43:08;5.60;;;5.00;;
15228;SDS011;7717;47.792;12.076;2023-08-12T00:45:34;8.37;;;4.87;;
15228;SDS011;7717;47.792;12.076;2023-08-12T00:48:03;5.87;;;4.70;;
15228;SDS011;7717;47.792;12.076;2023-08-12T00:50:28;5.30;;;4.80;;
15228;SDS011;7717;47.792;12.076;2023-08-12T00:52:58;5.33;;;4.73;;
15228;SDS011;7717;47.792;12.076;2023-08-12T00:55:24;5.30;;;4.73;;
15228;SDS011;7717;47.792;12.076;2023-08-12T00:57:49;6.83;;;5.10;;
15228;SDS011;7717;47.792;12.076;2023-08-12T01:00:15;6.37;;;5.23;;
15228;SDS011;7717;47.792;12.076;2023-08-12T01:02:42;5.43;;;4.93;;
15228;SDS011;7717;47.792;12.076;2023-08-12T01:05:10;4.73;;;4.33;;
15228;SDS011;7717;47.792;12.076;2023-08-12T01:07:36;6.93;;;5.40;;
15228;SDS011;7717;47.792;12.076;2023-08-12T01:10:01;6.13;;;5.30;;
15228;SDS011;7717;47.792;12.076;2023-08-12T01:12:28;6.47;;;4.93;;
15228;SDS011;7717;47.792;12.076;2023-08-12T01:17:28;4.43;;;4.03;;
15228;SDS011;7717;47.792;12.076;2023-08-12T01:19:57;6.80;;;4.67;;
15228;SDS011;7717;47.792;12.076;2023-08-12T01:22:23;5.17;;;4.70;;
15228;SDS011;7717;47.792;12.076;2023-08-12T01:24:51;6.80;;;5.20;;
15228;SDS011;7717;47.792;12.076;2023-08-12T01:27:16;5.60;;;5.00;;
15228;SDS011;7717;47.792;12.076;2023-08-12T01:29:43;6.40;;;5.07;;
15228;SDS011;7717;47.792;12.076;2023-08-12T01:32:14;6.10;;;5.50;;
15228;SDS011;7717;47.792;12.076;2023-08-12T01:34:44;5.60;;;5.10;;
15228;SDS011;7717;47.792;12.076;2023-08-12T01:37:13;6.33;;;5.73;;
15228;SDS011;7717;47.792;12.076;2023-08-12T01:39:39;6.20;;;5.27;;
15228;SDS011;7717;47.792;12.076;2023-08-12T01:42:05;5.40;;;5.00;;
15228;SDS011;7717;47.792;12.076;2023-08-12T01:44:30;5.83;;;5.33;;
15228;SDS011;7717;47.792;12.076;2023-08-12T01:46:55;5.93;;;5.33;;
15228;SDS011;7717;47.792;12.076;2023-08-12T01:49:21;5.87;;;5.33;;
15228;SDS011;7717;47.792;12.076;2023-08-12T01:51:48;5.57;;;5.07;;
15228;SDS011;7717;47.792;12.076;2023-08-12T01:54:13;5.83;;;4.87;;
15228;SDS011;7717;47.792;12.076;2023-08-12T01:56:38;5.90;;;5.20;;
15228;SDS011;7717;47.792;12.076;2023-08-12T01:59:05;7.07;;;5.73;;
15228;SDS011;7717;47.792;12.076;2023-08-12T02:01:34;5.90;;;5.17;;
15228;SDS011;7717;47.792;12.076;2023-08-12T02:04:02;6.57;;;5.40;;
15228;SDS011;7717;47.792;12.076;2023-08-12T02:06:31;7.10;;;5.43;;
15228;SDS011;7717;47.792;12.076;2023-08-12T02:08:56;6.07;;;5.47;;
15228;SDS011;7717;47.792;12.076;2023-08-12T02:11:21;5.93;;;5.43;;
15228;SDS011;7717;47.792;12.076;2023-08-12T02:13:46;6.70;;;6.10;;
15228;SDS011;7717;47.792;12.076;2023-08-12T02:16:11;7.10;;;5.93;;
15228;SDS011;7717;47.792;12.076;2023-08-12T02:18:37;6.73;;;5.73;;
15228;SDS011;7717;47.792;12.076;2023-08-12T02:21:02;7.23;;;5.50;;
15228;SDS011;7717;47.792;12.076;2023-08-12T02:23:31;6.53;;;5.93;;
15228;SDS011;7717;47.792;12.076;2023-08-12T02:25:56;6.73;;;5.23;;
15228;SDS011;7717;47.792;12.076;2023-08-12T02:28:21;6.07;;;5.53;;
15228;SDS011;7717;47.792;12.076;2023-08-12T02:30:47;6.37;;;5.80;;
15228;SDS011;7717;47.792;12.076;2023-08-12T02:33:12;5.70;;;5.23;;
15228;SDS011;7717;47.792;12.076;2023-08-12T02:35:37;7.17;;;6.17;;
15228;SDS011;7717;47.792;12.076;2023-08-12T02:38:03;7.47;;;5.73;;
15228;SDS011;7717;47.792;12.076;2023-08-12T02:40:28;7.90;;;7.10;;
15228;SDS011;7717;47.792;12.076;2023-08-12T02:42:54;6.47;;;5.80;;
15228;SDS011;7717;47.792;12.076;2023-08-12T02:45:19;6.87;;;6.07;;
15228;SDS011;7717;47.792;12.076;2023-08-12T02:47:44;6.67;;;6.03;;
15228;SDS011;7717;47.792;12.076;2023-08-12T02:50:09;6.70;;;5.80;;
15228;SDS011;7717;47.792;12.076;2023-08-12T02:52:35;6.00;;;5.50;;
15228;SDS011;7717;47.792;12.076;2023-08-12T02:55:00;7.07;;;6.37;;
15228;SDS011;7717;47.792;12.076;2023-08-12T02:57:25;5.90;;;5.30;;
15228;SDS011;7717;47.792;12.076;2023-08-12T02:59:50;6.33;;;5.73;;
15228;SDS011;7717;47.792;12.076;2023-08-12T03:02:16;6.20;;;5.60;;
15228;SDS011;7717;47.792;12.076;2023-08-12T03:04:41;6.57;;;5.97;;
15228;SDS011;7717;47.792;12.076;2023-08-12T03:07:10;5.37;;;4.93;;
15228;SDS011;7717;47.792;12.076;2023-08-12T03:09:35;6.83;;;6.10;;
15228;SDS011;7717;47.792;12.076;2023-08-12T03:12:00;14.00;;;9.50;;
15228;SDS011;7717;47.792;12.076;2023-08-12T03:14:29;14.37;;;9.57;;
15228;SDS011;7717;47.792;12.076;2023-08-12T03:16:54;15.83;;;11.83;;
15228;SDS011;7717;47.792;12.076;2023-08-12T03:19:19;17.77;;;13.03;;
15228;SDS011;7717;47.792;12.076;2023-08-12T03:21:45;14.40;;;10.30;;
15228;SDS011;7717;47.792;12.076;2023-08-12T03:24:13;12.37;;;8.37;;
15228;SDS011;7717;47.792;12.076;2023-08-12T03:26:38;12.73;;;9.77;;
15228;SDS011;7717;47.792;12.076;2023-08-12T03:29:04;11.70;;;8.03;;
15228;SDS011;7717;47.792;12.076;2023-08-12T03:31:29;8.27;;;7.30;;
15228;SDS011;7717;47.792;12.076;2023-08-12T03:33:54;7.57;;;6.30;;
15228;SDS011;7717;47.792;12.076;2023-08-12T03:36:19;8.37;;;7.43;;
15228;SDS011;7717;47.792;12.076;2023-08-12T03:38:44;7.87;;;6.87;;
15228;SDS011;7717;47.792;12.076;2023-08-12T03:41:10;9.00;;;6.17;;
15228;SDS011;7717;47.792;12.076;2023-08-12T03:43:39;9.50;;;6.93;;
15228;SDS011;7717;47.792;12.076;2023-08-12T03:46:04;8.50;;;7.40;;
15228;SDS011;7717;47.792;12.076;2023-08-12T03:48:30;7.90;;;7.10;;
15228;SDS011;7717;47.792;12.076;2023-08-12T03:50:55;10.03;;;7.80;;
15228;SDS011;7717;47.792;12.076;2023-08-12T03:53:20;10.37;;;7.43;;
15228;SDS011;7717;47.792;12.076;2023-08-12T03:55:45;7.43;;;6.73;;
15228;SDS011;7717;47.792;12.076;2023-08-12T03:58:16;8.63;;;6.87;;
15228;SDS011;7717;47.792;12.076;2023-08-12T04:00:42;7.90;;;6.57;;
15228;SDS011;7717;47.792;12.076;2023-08-12T04:03:10;9.07;;;6.33;;
15228;SDS011;7717;47.792;12.076;2023-08-12T04:05:36;6.57;;;5.97;;
15228;SDS011;7717;47.792;12.076;2023-08-12T04:08:02;6.57;;;5.97;;
15228;SDS011;7717;47.792;12.076;2023-08-12T04:10:27;7.20;;;6.60;;
15228;SDS011;7717;47.792;12.076;2023-08-12T04:12:52;7.63;;;5.93;;
15228;SDS011;7717;47.792;12.076;2023-08-12T04:15:17;7.00;;;6.30;;
15228;SDS011;7717;47.792;12.076;2023-08-12T04:17:43;6.40;;;5.77;;
15228;SDS011;7717;47.792;12.076;2023-08-12T04:20:08;5.90;;;5.40;;
15228;SDS011;7717;47.792;12.076;2023-08-12T04:22:34;6.30;;;5.73;;
15228;SDS011;7717;47.792;12.076;2023-08-12T04:24:59;6.00;;;5.50;;
15228;SDS011;7717;47.792;12.076;2023-08-12T04:27:24;6.33;;;5.73;;
15228;SDS011;7717;47.792;12.076;2023-08-12T04:29:49;7.50;;;6.00;;
15228;SDS011;7717;47.792;12.076;2023-08-12T04:32:15;8.03;;;6.07;;
15228;SDS011;7717;47.792;12.076;2023-08-12T04:34:40;7.40;;;5.77;;
15228;SDS011;7717;47.792;12.076;2023-08-12T04:37:06;6.73;;;5.50;;
15228;SDS011;7717;47.792;12.076;2023-08-12T04:39:31;7.00;;;6.03;;
15228;SDS011;7717;47.792;12.076;2023-08-12T04:41:57;7.13;;;5.93;;
15228;SDS011;7717;47.792;12.076;2023-08-12T04:44:22;7.43;;;6.37;;
15228;SDS011;7717;47.792;12.076;2023-08-12T04:46:48;7.30;;;6.60;;
15228;SDS011;7717;47.792;12.076;2023-08-12T04:49:13;8.50;;;7.10;;
15228;SDS011;7717;47.792;12.076;2023-08-12T04:51:38;9.07;;;7.40;;
15228;SDS011;7717;47.792;12.076;2023-08-12T04:54:03;7.30;;;6.53;;
15228;SDS011;7717;47.792;12.076;2023-08-12T04:56:29;7.53;;;6.60;;
15228;SDS011;7717;47.792;12.076;2023-08-12T04:58:54;7.33;;;6.50;;
15228;SDS011;7717;47.792;12.076;2023-08-12T05:01:20;7.23;;;6.63;;
15228;SDS011;7717;47.792;12.076;2023-08-12T05:03:45;9.47;;;7.20;;
15228;SDS011;7717;47.792;12.076;2023-08-12T05:06:11;10.93;;;7.00;;
15228;SDS011;7717;47.792;12.076;2023-08-12T05:08:36;7.90;;;6.27;;
15228;SDS011;7717;47.792;12.076;2023-08-12T05:11:01;10.13;;;6.57;;
15228;SDS011;7717;47.792;12.076;2023-08-12T05:13:26;7.27;;;6.57;;
15228;SDS011;7717;47.792;12.076;2023-08-12T05:15:53;7.40;;;5.90;;
15228;SDS011;7717;47.792;12.076;2023-08-12T05:18:24;6.37;;;5.77;;
15228;SDS011;7717;47.792;12.076;2023-08-12T05:20:54;7.23;;;6.47;;
15228;SDS011;7717;47.792;12.076;2023-08-12T05:23:22;6.97;;;6.37;;
15228;SDS011;7717;47.792;12.076;2023-08-12T05:25:48;6.60;;;5.97;;
15228;SDS011;7717;47.792;12.076;2023-08-12T05:28:13;7.43;;;6.73;;
15228;SDS011;7717;47.792;12.076;2023-08-12T05:30:38;6.90;;;6.30;;
15228;SDS011;7717;47.792;12.076;2023-08-12T05:33:04;6.73;;;6.13;;
15228;SDS011;7717;47.792;12.076;2023-08-12T05:35:32;7.43;;;6.20;;
15228;SDS011;7717;47.792;12.076;2023-08-12T05:37:58;6.47;;;5.87;;
15228;SDS011;7717;47.792;12.076;2023-08-12T05:40:23;6.70;;;6.00;;
15228;SDS011;7717;47.792;12.076;2023-08-12T05:42:49;6.13;;;5.60;;
15228;SDS011;7717;47.792;12.076;2023-08-12T05:45:14;6.03;;;5.40;;
15228;SDS011;7717;47.792;12.076;2023-08-12T05:47:39;8.13;;;7.33;;
15228;SDS011;7717;47.792;12.076;2023-08-12T05:50:05;6.77;;;6.13;;
15228;SDS011;7717;47.792;12.076;2023-08-12T05:52:31;6.40;;;5.90;;
15228;SDS011;7717;47.792;12.076;2023-08-12T05:54:56;6.07;;;5.47;;
15228;SDS011;7717;47.792;12.076;2023-08-12T05:57:27;7.23;;;6.53;;
15228;SDS011;7717;47.792;12.076;2023-08-12T05:59:53;7.43;;;6.57;;
15228;SDS011;7717;47.792;12.076;2023-08-12T06:02:18;6.53;;;5.90;;
15228;SDS011;7717;47.792;12.076;2023-08-12T06:04:43;6.77;;;6.20;;
15228;SDS011;7717;47.792;12.076;2023-08-12T06:07:09;6.63;;;6.03;;
15228;SDS011;7717;47.792;12.076;2023-08-12T06:09:34;5.80;;;5.40;;
15228;SDS011;7717;47.792;12.076;2023-08-12T06:11:59;6.20;;;5.47;;
15228;SDS011;7717;47.792;12.076;2023-08-12T06:14:27;4.73;;;4.33;;
15228;SDS011;7717;47.792;12.076;2023-08-12T06:16:52;5.60;;;5.10;;
15228;SDS011;7717;47.792;12.076;2023-08-12T06:19:18;5.37;;;4.87;;
15228;SDS011;7717;47.792;12.076;2023-08-12T06:21:43;5.90;;;5.33;;
15228;SDS011;7717;47.792;12.076;2023-08-12T06:24:08;5.40;;;4.90;;
15228;SDS011;7717;47.792;12.076;2023-08-12T06:26:33;6.37;;;4.70;;
15228;SDS011;7717;47.792;12.076;2023-08-12T06:28:59;6.17;;;4.57;;
15228;SDS011;7717;47.792;12.076;2023-08-12T06:31:33;4.67;;;4.27;;
15228;SDS011;7717;47.792;12.076;2023-08-12T06:33:59;4.40;;;4.00;;
15228;SDS011;7717;47.792;12.076;2023-08-12T06:36:24;4.60;;;4.20;;
15228;SDS011;7717;47.792;12.076;2023-08-12T06:38:55;4.70;;;4.27;;
15228;SDS011;7717;47.792;12.076;2023-08-12T06:41:21;4.60;;;4.20;;
15228;SDS011;7717;47.792;12.076;2023-08-12T06:43:46;4.53;;;4.00;;
15228;SDS011;7717;47.792;12.076;2023-08-12T06:46:11;4.00;;;3.63;;
15228;SDS011;7717;47.792;12.076;2023-08-12T06:48:37;6.90;;;3.50;;
15228;SDS011;7717;47.792;12.076;2023-08-12T06:51:02;4.03;;;3.50;;
15228;SDS011;7717;47.792;12.076;2023-08-12T06:53:35;4.07;;;3.67;;
15228;SDS011;7717;47.792;12.076;2023-08-12T06:56:00;3.67;;;3.33;;
15228;SDS011;7717;47.792;12.076;2023-08-12T06:58:25;3.93;;;3.63;;
15228;SDS011;7717;47.792;12.076;2023-08-12T07:00:51;3.63;;;3.33;;
15228;SDS011;7717;47.792;12.076;2023-08-12T07:03:18;3.33;;;3.03;;
15228;SDS011;7717;47.792;12.076;2023-08-12T07:05:43;3.73;;;3.43;;
15228;SDS011;7717;47.792;12.076;2023-08-12T07:08:08;3.57;;;3.27;;
15228;SDS011;7717;47.792;12.076;2023-08-12T07:10:34;3.33;;;3.07;;
15228;SDS011;7717;47.792;12.076;2023-08-12T07:13:02;3.60;;;3.40;;
15228;SDS011;7717;47.792;12.076;2023-08-12T07:15:27;3.07;;;2.87;;
15228;SDS011;7717;47.792;12.076;2023-08-12T07:17:59;3.40;;;3.10;;
15228;SDS011;7717;47.792;12.076;2023-08-12T07:20:24;3.80;;;3.40;;
15228;SDS011;7717;47.792;12.076;2023-08-12T07:22:58;3.70;;;3.40;;
15228;SDS011;7717;47.792;12.076;2023-08-12T07:25:23;3.30;;;3.07;;
15228;SDS011;7717;47.792;12.076;2023-08-12T07:27:48;3.77;;;3.47;;
15228;SDS011;7717;47.792;12.076;2023-08-12T07:30:13;3.00;;;2.80;;
15228;SDS011;7717;47.792;12.076;2023-08-12T07:32:39;3.30;;;3.00;;
15228;SDS011;7717;47.792;12.076;2023-08-12T07:35:04;3.23;;;2.93;;
15228;SDS011;7717;47.792;12.076;2023-08-12T07:37:33;4.07;;;3.43;;
15228;SDS011;7717;47.792;12.076;2023-08-12T07:39:59;3.17;;;2.90;;
15228;SDS011;7717;47.792;12.076;2023-08-12T07:42:24;3.50;;;3.20;;
15228;SDS011;7717;47.792;12.076;2023-08-12T07:44:49;3.50;;;2.80;;
15228;SDS011;7717;47.792;12.076;2023-08-12T07:47:14;2.97;;;2.77;;
15228;SDS011;7717;47.792;12.076;2023-08-12T07:49:43;3.33;;;3.03;;
15228;SDS011;7717;47.792;12.076;2023-08-12T07:52:08;4.03;;;3.27;;
15228;SDS011;7717;47.792;12.076;2023-08-12T07:54:33;3.22;;;2.90;;
15228;SDS011;7717;47.792;12.076;2023-08-12T07:57:02;3.38;;;3.05;;
15228;SDS011;7717;47.792;12.076;2023-08-12T07:59:27;4.00;;;2.90;;
15228;SDS011;7717;47.792;12.076;2023-08-12T08:01:53;2.70;;;2.55;;
15228;SDS011;7717;47.792;12.076;2023-08-12T08:04:18;4.05;;;3.00;;
15228;SDS011;7717;47.792;12.076;2023-08-12T08:06:43;2.90;;;2.60;;
15228;SDS011;7717;47.792;12.076;2023-08-12T08:09:09;6.95;;;2.92;;
15228;SDS011;7717;47.792;12.076;2023-08-12T08:11:37;3.33;;;2.60;;
15228;SDS011;7717;47.792;12.076;2023-08-12T08:14:02;3.33;;;3.08;;
15228;SDS011;7717;47.792;12.076;2023-08-12T08:16:27;3.03;;;2.83;;
15228;SDS011;7717;47.792;12.076;2023-08-12T08:18:53;2.70;;;2.50;;
15228;SDS011;7717;47.792;12.076;2023-08-12T08:21:18;2.95;;;2.75;;
15228;SDS011;7717;47.792;12.076;2023-08-12T08:23:44;3.40;;;3.10;;
15228;SDS011;7717;47.792;12.076;2023-08-12T08:26:09;2.80;;;2.53;;
15228;SDS011;7717;47.792;12.076;2023-08-12T08:28:37;3.00;;;2.70;;
15228;SDS011;7717;47.792;12.076;2023-08-12T08:31:03;2.67;;;2.45;;
15228;SDS011;7717;47.792;12.076;2023-08-12T08:33:31;3.20;;;3.00;;
15228;SDS011;7717;47.792;12.076;2023-08-12T08:35:56;2.90;;;2.70;;
15228;SDS011;7717;47.792;12.076;2023-08-12T08:38:21;3.13;;;2.80;;
15228;SDS011;7717;47.792;12.076;2023-08-12T08:40:48;2.83;;;2.63;;
15228;SDS011;7717;47.792;12.076;2023-08-12T08:43:14;2.78;;;2.58;;
15228;SDS011;7717;47.792;12.076;2023-08-12T08:45:40;2.70;;;2.50;;
15228;SDS011;7717;47.792;12.076;2023-08-12T08:48:07;3.00;;;2.80;;
15228;SDS011;7717;47.792;12.076;2023-08-12T08:50:35;2.95;;;2.72;;
15228;SDS011;7717;47.792;12.076;2023-08-12T08:53:11;2.95;;;2.75;;
15228;SDS011;7717;47.792;12.076;2023-08-12T08:55:42;2.42;;;2.33;;
15228;SDS011;7717;47.792;12.076;2023-08-12T08:58:10;3.47;;;2.90;;
15228;SDS011;7717;47.792;12.076;2023-08-12T09:00:39;2.70;;;2.60;;
15228;SDS011;7717;47.792;12.076;2023-08-12T09:03:10;2.80;;;2.60;;
15228;SDS011;7717;47.792;12.076;2023-08-12T09:05:36;3.90;;;3.08;;
15228;SDS011;7717;47.792;12.076;2023-08-12T09:08:03;3.25;;;2.95;;
15228;SDS011;7717;47.792;12.076;2023-08-12T09:10:31;3.03;;;2.47;;
15228;SDS011;7717;47.792;12.076;2023-08-12T09:13:00;3.20;;;3.00;;
15228;SDS011;7717;47.792;12.076;2023-08-12T09:15:27;2.72;;;2.53;;
15228;SDS011;7717;47.792;12.076;2023-08-12T09:17:52;2.80;;;2.60;;
15228;SDS011;7717;47.792;12.076;2023-08-12T09:20:17;3.10;;;2.80;;
15228;SDS011;7717;47.792;12.076;2023-08-12T09:22:46;2.72;;;2.53;;
15228;SDS011;7717;47.792;12.076;2023-08-12T09:25:19;3.83;;;3.45;;
15228;SDS011;7717;47.792;12.076;2023-08-12T09:27:45;2.97;;;2.78;;
15228;SDS011;7717;47.792;12.076;2023-08-12T09:30:10;3.08;;;2.88;;
15228;SDS011;7717;47.792;12.076;2023-08-12T09:32:41;3.42;;;2.80;;
15228;SDS011;7717;47.792;12.076;2023-08-12T09:35:15;2.75;;;2.55;;
15228;SDS011;7717;47.792;12.076;2023-08-12T09:37:46;3.42;;;3.13;;
15228;SDS011;7717;47.792;12.076;2023-08-12T09:40:12;2.67;;;2.47;;
15228;SDS011;7717;47.792;12.076;2023-08-12T09:42:43;3.05;;;2.80;;
15228;SDS011;7717;47.792;12.076;2023-08-12T09:45:12;3.50;;;2.88;;
15228;SDS011;7717;47.792;12.076;2023-08-12T09:47:43;3.22;;;3.03;;
15228;SDS011;7717;47.792;12.076;2023-08-12T09:50:09;3.28;;;3.08;;
15228;SDS011;7717;47.792;12.076;2023-08-12T09:52:35;3.25;;;3.05;;
15228;SDS011;7717;47.792;12.076;2023-08-12T09:55:04;3.28;;;2.97;;
15228;SDS011;7717;47.792;12.076;2023-08-12T09:57:30;3.08;;;2.80;;
15228;SDS011;7717;47.792;12.076;2023-08-12T10:00:01;2.63;;;2.53;;
15228;SDS011;7717;47.792;12.076;2023-08-12T10:02:27;4.38;;;2.50;;
15228;SDS011;7717;47.792;12.076;2023-08-12T10:04:53;2.88;;;2.67;;
15228;SDS011;7717;47.792;12.076;2023-08-12T10:07:21;2.67;;;2.58;;
15228;SDS011;7717;47.792;12.076;2023-08-12T10:09:49;2.90;;;2.70;;
15228;SDS011;7717;47.792;12.076;2023-08-12T10:12:15;3.88;;;2.40;;
15228;SDS011;7717;47.792;12.076;2023-08-12T10:14:46;2.80;;;2.55;;
15228;SDS011;7717;47.792;12.076;2023-08-12T10:17:15;2.63;;;2.42;;
15228;SDS011;7717;47.792;12.076;2023-08-12T10:19:44;2.80;;;2.60;;
15228;SDS011;7717;47.792;12.076;2023-08-12T10:22:15;3.55;;;2.70;;
15228;SDS011;7717;47.792;12.076;2023-08-12T10:24:42;2.65;;;2.53;;
15228;SDS011;7717;47.792;12.076;2023-08-12T10:27:07;2.90;;;2.70;;
15228;SDS011;7717;47.792;12.076;2023-08-12T10:29:33;2.65;;;2.45;;
15228;SDS011;7717;47.792;12.076;2023-08-12T10:32:00;2.55;;;2.35;;
15228;SDS011;7717;47.792;12.076;2023-08-12T10:34:25;2.58;;;2.47;;
15228;SDS011;7717;47.792;12.076;2023-08-12T10:37:01;2.28;;;2.17;;
15228;SDS011;7717;47.792;12.076;2023-08-12T10:39:27;2.60;;;2.50;;
15228;SDS011;7717;47.792;12.076;2023-08-12T10:41:57;2.88;;;2.63;;
15228;SDS011;7717;47.792;12.076;2023-08-12T10:44:26;3.53;;;2.47;;
15228;SDS011;7717;47.792;12.076;2023-08-12T10:46:52;2.90;;;2.70;;
15228;SDS011;7717;47.792;12.076;2023-08-12T10:49:21;3.00;;;2.70;;
15228;SDS011;7717;47.792;12.076;2023-08-12T10:51:51;2.67;;;2.47;;
15228;SDS011;7717;47.792;12.076;2023-08-12T11:02:19;2.80;;;2.60;;
15228;SDS011;7717;47.792;12.076;2023-08-12T11:05:00;3.03;;;2.67;;
15228;SDS011;7717;47.792;12.076;2023-08-12T11:09:54;2.80;;;2.60;;
15228;SDS011;7717;47.792;12.076;2023-08-12T11:12:33;2.70;;;2.50;;
15228;SDS011;7717;47.792;12.076;2023-08-12T11:14:59;2.63;;;2.40;;
15228;SDS011;7717;47.792;12.076;2023-08-12T11:17:29;2.95;;;2.70;;
15228;SDS011;7717;47.792;12.076;2023-08-12T11:19:57;2.97;;;2.78;;
15228;SDS011;7717;47.792;12.076;2023-08-12T11:22:23;2.63;;;2.53;;
15228;SDS011;7717;47.792;12.076;2023-08-12T11:24:48;2.70;;;2.50;;
15228;SDS011;7717;47.792;12.076;2023-08-12T11:27:13;2.65;;;2.50;;
15228;SDS011;7717;47.792;12.076;2023-08-12T11:29:39;5.47;;;3.80;;
15228;SDS011;7717;47.792;12.076;2023-08-12T11:32:07;3.40;;;3.10;;
15228;SDS011;7717;47.792;12.076;2023-08-12T11:34:33;2.95;;;2.75;;
15228;SDS011;7717;47.792;12.076;2023-08-12T11:36:58;3.00;;;2.80;;
15228;SDS011;7717;47.792;12.076;2023-08-12T11:39:24;3.60;;;2.78;;
15228;SDS011;7717;47.792;12.076;2023-08-12T11:41:49;3.20;;;3.00;;
15228;SDS011;7717;47.792;12.076;2023-08-12T11:44:16;3.08;;;2.55;;
15228;SDS011;7717;47.792;12.076;2023-08-12T11:46:41;2.70;;;2.50;;
15228;SDS011;7717;47.792;12.076;2023-08-12T11:49:06;2.80;;;2.60;;
15228;SDS011;7717;47.792;12.076;2023-08-12T11:51:32;3.88;;;2.65;;
15228;SDS011;7717;47.792;12.076;2023-08-12T11:53:58;2.90;;;2.70;;
15228;SDS011;7717;47.792;12.076;2023-08-12T11:56:24;3.25;;;2.83;;
15228;SDS011;7717;47.792;12.076;2023-08-12T11:58:53;2.95;;;2.75;;
15228;SDS011;7717;47.792;12.076;2023-08-12T12:01:20;3.05;;;2.80;;
15228;SDS011;7717;47.792;12.076;2023-08-12T12:03:50;2.60;;;2.40;;
15228;SDS011;7717;47.792;12.076;2023-08-12T12:06:15;3.00;;;2.80;;
15228;SDS011;7717;47.792;12.076;2023-08-12T12:08:44;3.03;;;2.72;;
15228;SDS011;7717;47.792;12.076;2023-08-12T12:11:09;3.10;;;2.85;;
15228;SDS011;7717;47.792;12.076;2023-08-12T12:13:35;2.47;;;2.25;;
15228;SDS011;7717;47.792;12.076;2023-08-12T12:16:00;3.13;;;2.63;;
15228;SDS011;7717;47.792;12.076;2023-08-12T12:18:26;2.80;;;2.70;;
15228;SDS011;7717;47.792;12.076;2023-08-12T12:20:58;2.60;;;2.40;;
15228;SDS011;7717;47.792;12.076;2023-08-12T12:23:29;2.75;;;2.55;;
15228;SDS011;7717;47.792;12.076;2023-08-12T12:25:59;3.05;;;2.80;;
15228;SDS011;7717;47.792;12.076;2023-08-12T12:28:24;2.88;;;2.72;;
15228;SDS011;7717;47.792;12.076;2023-08-12T12:30:50;2.80;;;2.20;;
15228;SDS011;7717;47.792;12.076;2023-08-12T12:33:15;2.50;;;2.30;;
15228;SDS011;7717;47.792;12.076;2023-08-12T12:35:40;2.72;;;2.53;;
15228;SDS011;7717;47.792;12.076;2023-08-12T12:38:06;2.50;;;2.23;;
15228;SDS011;7717;47.792;12.076;2023-08-12T12:40:31;2.17;;;2.07;;
15228;SDS011;7717;47.792;12.076;2023-08-12T12:42:56;2.30;;;2.20;;
15228;SDS011;7717;47.792;12.076;2023-08-12T12:45:21;2.35;;;2.13;;
15228;SDS011;7717;47.792;12.076;2023-08-12T12:47:46;2.80;;;2.70;;
15228;SDS011;7717;47.792;12.076;2023-08-12T12:50:12;2.50;;;2.40;;
15228;SDS011;7717;47.792;12.076;2023-08-12T12:52:37;2.63;;;2.43;;
15228;SDS011;7717;47.792;12.076;2023-08-12T12:55:02;2.50;;;2.30;;
15228;SDS011;7717;47.792;12.076;2023-08-12T12:57:32;2.47;;;2.28;;
15228;SDS011;7717;47.792;12.076;2023-08-12T12:59:57;2.40;;;2.20;;
15228;SDS011;7717;47.792;12.076;2023-08-12T13:02:22;2.77;;;2.57;;
15228;SDS011;7717;47.792;12.076;2023-08-12T13:04:47;3.00;;;2.80;;
15228;SDS011;7717;47.792;12.076;2023-08-12T13:07:14;2.45;;;2.35;;
15228;SDS011;7717;47.792;12.076;2023-08-12T13:09:40;2.42;;;2.30;;
15228;SDS011;7717;47.792;12.076;2023-08-12T13:12:08;2.50;;;2.40;;
15228;SDS011;7717;47.792;12.076;2023-08-12T13:14:33;2.85;;;2.65;;
15228;SDS011;7717;47.792;12.076;2023-08-12T13:16:58;2.25;;;2.15;;
15228;SDS011;7717;47.792;12.076;2023-08-12T13:19:23;3.00;;;2.80;;
15228;SDS011;7717;47.792;12.076;2023-08-12T13:21:49;3.10;;;2.60;;
15228;SDS011;7717;47.792;12.076;2023-08-12T13:24:14;2.65;;;2.45;;
15228;SDS011;7717;47.792;12.076;2023-08-12T13:26:40;2.65;;;2.33;;
15228;SDS011;7717;47.792;12.076;2023-08-12T13:29:05;2.60;;;2.40;;
15228;SDS011;7717;47.792;12.076;2023-08-12T13:31:31;2.75;;;2.30;;
15228;SDS011;7717;47.792;12.076;2023-08-12T13:33:56;2.40;;;2.30;;
15228;SDS011;7717;47.792;12.076;2023-08-12T13:36:22;2.50;;;2.30;;
15228;SDS011;7717;47.792;12.076;2023-08-12T13:38:47;3.40;;;2.40;;
15228;SDS011;7717;47.792;12.076;2023-08-12T13:41:12;2.90;;;2.63;;
15228;SDS011;7717;47.792;12.076;2023-08-12T13:43:37;2.83;;;2.40;;
15228;SDS011;7717;47.792;12.076;2023-08-12T13:46:03;2.80;;;2.60;;
15228;SDS011;7717;47.792;12.076;2023-08-12T13:48:28;2.45;;;2.30;;
15228;SDS011;7717;47.792;12.076;2023-08-12T13:50:54;2.30;;;2.20;;
15228;SDS011;7717;47.792;12.076;2023-08-12T13:53:20;2.33;;;2.22;;
15228;SDS011;7717;47.792;12.076;2023-08-12T13:55:45;2.47;;;2.28;;
15228;SDS011;7717;47.792;12.076;2023-08-12T13:58:10;2.28;;;2.08;;
15228;SDS011;7717;47.792;12.076;2023-08-12T14:00:36;3.33;;;2.42;;
15228;SDS011;7717;47.792;12.076;2023-08-12T14:03:01;3.45;;;2.50;;
15228;SDS011;7717;47.792;12.076;2023-08-12T14:05:27;2.55;;;2.35;;
15228;SDS011;7717;47.792;12.076;2023-08-12T14:07:52;2.17;;;2.05;;
15228;SDS011;7717;47.792;12.076;2023-08-12T14:10:17;2.67;;;2.47;;
15228;SDS011;7717;47.792;12.076;2023-08-12T14:12:42;2.67;;;2.47;;
15228;SDS011;7717;47.792;12.076;2023-08-12T14:15:08;2.35;;;2.15;;
15228;SDS011;7717;47.792;12.076;2023-08-12T14:17:33;2.38;;;2.20;;
15228;SDS011;7717;47.792;12.076;2023-08-12T14:19:58;2.27;;;2.10;;
15228;SDS011;7717;47.792;12.076;2023-08-12T14:22:24;2.55;;;2.35;;
15228;SDS011;7717;47.792;12.076;2023-08-12T14:24:49;2.63;;;2.42;;
15228;SDS011;7717;47.792;12.076;2023-08-12T14:27:15;3.45;;;2.60;;
15228;SDS011;7717;47.792;12.076;2023-08-12T14:29:42;4.40;;;2.58;;
15228;SDS011;7717;47.792;12.076;2023-08-12T14:32:07;2.93;;;2.60;;
15228;SDS011;7717;47.792;12.076;2023-08-12T14:34:32;2.70;;;2.50;;
15228;SDS011;7717;47.792;12.076;2023-08-12T14:36:58;3.00;;;2.80;;
15228;SDS011;7717;47.792;12.076;2023-08-12T14:39:23;2.80;;;2.50;;
15228;SDS011;7717;47.792;12.076;2023-08-12T14:41:48;2.07;;;1.97;;
15228;SDS011;7717;47.792;12.076;2023-08-12T14:44:13;4.53;;;2.63;;
15228;SDS011;7717;47.792;12.076;2023-08-12T14:46:39;2.70;;;2.42;;
15228;SDS011;7717;47.792;12.076;2023-08-12T14:49:04;3.17;;;2.90;;
15228;SDS011;7717;47.792;12.076;2023-08-12T14:51:30;6.05;;;2.92;;
15228;SDS011;7717;47.792;12.076;2023-08-12T14:53:55;2.67;;;2.47;;
15228;SDS011;7717;47.792;12.076;2023-08-12T14:56:20;4.03;;;2.60;;